Time;durP1;ratioP1;P1;durP2;ratioP2;P2;SDS_P1;SDS_P2;PMS_P1;PMS_P2;Temp;Humidity;BMP_temperature;BMP_pressure;BME280_temperature;BME280_humidity;BME280_pressure;Samples;Min_cycle;Max_cycle;Signal;HPM_P1;HPM_P2
2022/01/06 00:00:57;;;;;;;6.50;1.93;;;4.00;99.90;;;;;;5066015;28;20461;-52
2022/01/06 00:03:24;;;;;;;6.63;2.37;;;4.00;99.90;;;;;;5065534;28;20480;-52
2022/01/06 00:05:51;;;;;;;6.97;2.20;;;4.00;99.90;;;;;;5066727;28;20466;-52
2022/01/06 00:08:19;;;;;;;7.17;2.20;;;3.90;99.90;;;;;;5065226;28;20547;-51
2022/01/06 00:10:47;;;;;;;9.17;2.10;;;3.90;99.90;;;;;;5057977;28;20540;-52
2022/01/06 00:13:17;;;;;;;13.33;2.40;;;3.90;99.90;;;;;;5062376;28;21013;-52
2022/01/06 00:15:59;;;;;;;4.03;1.70;;;3.90;99.90;;;;;;5063726;28;20465;-52
2022/01/06 00:18:39;;;;;;;2.73;1.77;;;3.80;99.90;;;;;;5067272;28;20477;-51
2022/01/06 00:24:00;;;;;;;6.90;1.67;;;3.70;99.90;;;;;;5032707;28;20481;-53
2022/01/06 00:26:26;;;;;;;1.90;1.33;;;3.50;99.90;;;;;;5061292;28;20551;-52
2022/01/06 00:28:53;;;;;;;3.00;2.00;;;3.60;21.30;;;;;;5062434;28;20939;-52
2022/01/06 00:31:19;;;;;;;4.47;1.43;;;3.50;21.70;;;;;;5058040;28;20564;-52
2022/01/06 00:33:46;;;;;;;3.23;1.57;;;3.50;75.30;;;;;;5061542;28;20556;-52
2022/01/06 00:36:12;;;;;;;1.47;1.30;;;3.40;24.70;;;;;;5057437;28;20540;-52
2022/01/06 00:38:39;;;;;;;3.53;1.77;;;3.40;39.00;;;;;;5067451;28;20539;-51
2022/01/06 00:41:06;;;;;;;4.50;1.73;;;3.40;37.90;;;;;;5062646;28;20548;-52
2022/01/06 00:43:33;;;;;;;3.33;1.63;;;3.30;68.50;;;;;;5065660;28;20567;-52
2022/01/06 00:45:59;;;;;;;9.60;2.00;;;3.30;65.70;;;;;;5060505;28;20553;-51
2022/01/06 00:48:26;;;;;;;2.80;1.63;;;3.30;89.10;;;;;;5063395;28;20544;-52
2022/01/06 00:50:53;;;;;;;2.70;1.70;;;3.20;99.90;;;;;;5063151;28;20540;-52
2022/01/06 00:53:19;;;;;;;2.50;1.60;;;3.10;99.90;;;;;;5066540;28;20512;-52
2022/01/06 00:55:46;;;;;;;2.07;1.30;;;3.00;1.40;;;;;;5064261;28;20563;-52
2022/01/06 00:58:14;;;;;;;4.10;1.50;;;2.90;99.90;;;;;;5066132;28;20549;-51
2022/01/06 01:00:41;;;;;;;3.23;1.40;;;2.80;99.90;;;;;;5067296;28;20527;-52
2022/01/06 01:03:10;;;;;;;2.13;1.00;;;2.70;99.90;;;;;;5063443;28;20489;-52
2022/01/06 01:05:37;;;;;;;2.80;0.90;;;2.60;99.90;;;;;;5069252;28;20465;-52
2022/01/06 01:08:05;;;;;;;2.77;1.10;;;2.50;99.90;;;;;;5071155;28;20548;-51
2022/01/06 01:10:31;;;;;;;3.80;1.27;;;2.50;99.90;;;;;;5069132;28;20933;-52
2022/01/06 01:12:58;;;;;;;2.10;1.23;;;2.40;99.90;;;;;;5066023;28;21081;-53
2022/01/06 01:15:27;;;;;;;5.80;1.23;;;2.30;99.90;;;;;;5073461;28;20521;-52
2022/01/06 01:18:04;;;;;;;6.43;2.43;;;2.30;99.90;;;;;;5073538;28;20540;-52
2022/01/06 01:20:31;;;;;;;1.60;1.47;;;2.20;99.90;;;;;;5071564;28;20452;-52
2022/01/06 01:22:58;;;;;;;3.03;1.30;;;2.20;99.90;;;;;;5069712;28;20485;-52
2022/01/06 01:25:25;;;;;;;3.53;1.40;;;2.20;99.90;;;;;;5066638;28;20563;-51
2022/01/06 01:27:55;;;;;;;3.30;1.37;;;2.20;99.90;;;;;;5068856;28;20564;-52
2022/01/06 01:30:29;;;;;;;1.17;1.10;;;2.20;99.90;;;;;;5070280;28;20461;-52
2022/01/06 01:32:58;;;;;;;1.73;1.30;;;2.20;99.90;;;;;;5063576;28;20560;-52
2022/01/06 01:35:30;;;;;;;5.10;1.63;;;2.30;99.90;;;;;;5074031;28;20464;-53
2022/01/06 01:37:57;;;;;;;2.73;1.67;;;2.30;99.90;;;;;;5064953;28;20572;-51
2022/01/06 01:40:24;;;;;;;3.63;1.33;;;2.30;99.90;;;;;;5066462;28;20540;-51
2022/01/06 01:42:51;;;;;;;1.90;1.50;;;2.40;99.90;;;;;;5067215;28;20572;-52
2022/01/06 01:45:17;;;;;;;1.20;1.10;;;2.40;99.90;;;;;;5071018;28;20571;-51
2022/01/06 01:47:45;;;;;;;5.13;2.13;;;2.40;99.90;;;;;;5072364;28;21142;-52
2022/01/06 01:50:16;;;;;;;2.50;1.60;;;2.40;99.90;;;;;;5066765;28;20465;-52
2022/01/06 01:52:45;;;;;;;4.73;1.77;;;2.40;99.90;;;;;;5062273;28;20483;-52
2022/01/06 01:55:14;;;;;;;4.00;1.50;;;2.40;99.90;;;;;;5072248;28;20886;-52
2022/01/06 01:57:41;;;;;;;3.83;2.17;;;2.40;99.90;;;;;;5064793;28;20560;-51
2022/01/06 02:00:09;;;;;;;1.80;1.70;;;2.40;99.90;;;;;;5071948;28;20504;-51
2022/01/06 02:02:36;;;;;;;2.67;1.60;;;2.50;99.90;;;;;;5067621;28;21064;-52
2022/01/06 02:05:04;;;;;;;5.13;2.10;;;2.40;99.90;;;;;;5064325;28;20568;-52
2022/01/06 02:07:34;;;;;;;5.83;2.37;;;2.50;99.90;;;;;;5069579;28;21026;-52
2022/01/06 02:10:00;;;;;;;5.33;1.70;;;2.50;99.90;;;;;;5069324;28;20461;-51
2022/01/06 02:12:30;;;;;;;4.93;1.40;;;2.50;99.90;;;;;;5068780;28;20572;-51
2022/01/06 02:14:57;;;;;;;3.33;1.33;;;2.40;99.90;;;;;;5064845;28;20456;-51
2022/01/06 02:17:24;;;;;;;9.37;2.30;;;2.50;99.90;;;;;;5064915;28;20539;-51
2022/01/06 02:19:55;;;;;;;4.07;1.43;;;2.50;99.90;;;;;;5063443;28;20541;-52
2022/01/06 02:22:22;;;;;;;6.07;2.10;;;2.40;99.90;;;;;;5064936;28;20576;-51
2022/01/06 02:24:49;;;;;;;8.57;1.57;;;2.40;99.90;;;;;;5070334;28;20651;-51
2022/01/06 02:27:19;;;;;;;3.03;1.70;;;2.50;99.90;;;;;;5062984;28;20557;-52
2022/01/06 02:29:46;;;;;;;3.07;1.40;;;2.40;99.90;;;;;;5066672;28;20456;-52
2022/01/06 02:32:16;;;;;;;3.80;1.50;;;2.40;99.90;;;;;;5068931;28;20560;-52
2022/01/06 02:34:42;;;;;;;1.57;1.30;;;2.40;99.90;;;;;;5068222;28;20459;-52
2022/01/06 02:37:10;;;;;;;3.00;1.40;;;2.40;99.90;;;;;;5072153;28;20492;-51
2022/01/06 02:39:37;;;;;;;6.10;1.60;;;2.30;99.90;;;;;;5065009;28;20489;-52
2022/01/06 02:42:05;;;;;;;4.43;1.57;;;2.30;99.90;;;;;;5067919;28;20516;-52
2022/01/06 02:44:32;;;;;;;2.90;1.20;;;2.30;99.90;;;;;;5069046;28;20476;-52
2022/01/06 02:46:58;;;;;;;1.80;1.53;;;2.20;99.90;;;;;;5067531;28;20458;-51
2022/01/06 02:49:25;;;;;;;2.10;1.07;;;2.20;99.90;;;;;;5063022;28;20506;-52
2022/01/06 02:51:52;;;;;;;2.13;1.13;;;2.20;99.90;;;;;;5066956;28;20504;-52
2022/01/06 02:54:21;;;;;;;1.73;1.20;;;2.20;99.90;;;;;;5068327;28;21156;-52
2022/01/06 02:56:48;;;;;;;2.00;1.10;;;2.10;99.90;;;;;;5071336;28;20461;-51
2022/01/06 02:59:15;;;;;;;4.80;1.20;;;2.20;99.90;;;;;;5069863;28;20460;-52
2022/01/06 03:01:44;;;;;;;6.93;1.53;;;2.10;99.90;;;;;;5068873;28;20515;-51
2022/01/06 03:04:12;;;;;;;5.83;1.70;;;2.00;99.90;;;;;;5069934;28;20523;-53
2022/01/06 03:06:39;;;;;;;1.07;0.90;;;2.00;99.90;;;;;;5068488;28;20500;-51
2022/01/06 03:09:06;;;;;;;4.90;1.47;;;1.90;99.90;;;;;;5063972;28;20493;-51
2022/01/06 03:11:40;;;;;;;2.50;1.33;;;1.80;99.90;;;;;;5067221;28;20496;-52
2022/01/06 03:14:06;;;;;;;6.20;1.37;;;1.80;99.90;;;;;;5066417;28;20878;-52
2022/01/06 03:16:33;;;;;;;6.17;0.87;;;1.70;99.90;;;;;;5070046;28;20488;-51
2022/01/06 03:19:00;;;;;;;1.50;1.27;;;1.60;99.90;;;;;;5064531;28;20499;-51
2022/01/06 03:21:26;;;;;;;2.73;1.40;;;1.60;99.90;;;;;;5068757;28;20911;-51
2022/01/06 03:23:53;;;;;;;3.90;1.50;;;1.50;99.90;;;;;;5070686;28;20973;-52
2022/01/06 03:26:19;;;;;;;1.80;1.17;;;1.40;99.90;;;;;;5069585;28;20504;-52
2022/01/06 03:28:47;;;;;;;2.40;1.20;;;1.40;99.90;;;;;;5067468;28;20496;-52
2022/01/06 03:31:14;;;;;;;9.37;1.43;;;1.30;99.90;;;;;;5059950;28;20485;-52
2022/01/06 03:33:40;;;;;;;3.20;1.30;;;1.30;99.90;;;;;;5068868;28;20484;-52
2022/01/06 03:36:07;;;;;;;7.00;1.53;;;1.20;99.90;;;;;;5070548;28;20896;-52
2022/01/06 03:38:33;;;;;;;2.40;1.00;;;1.10;99.90;;;;;;5060899;28;20488;-51
2022/01/06 03:41:00;;;;;;;5.50;0.90;;;1.00;99.90;;;;;;5069584;28;20606;-52
2022/01/06 03:43:27;;;;;;;5.67;1.47;;;1.00;99.90;;;;;;5067409;28;20485;-52
2022/01/06 03:45:54;;;;;;;2.80;1.13;;;0.90;99.90;;;;;;5058744;28;21089;-52
2022/01/06 03:48:21;;;;;;;2.87;1.20;;;0.80;99.90;;;;;;5062541;28;20498;-52
2022/01/06 03:50:48;;;;;;;4.03;1.40;;;0.80;99.90;;;;;;5064510;28;20989;-52
2022/01/06 03:53:14;;;;;;;3.30;1.30;;;0.70;99.90;;;;;;5066473;28;21040;-52
2022/01/06 03:55:41;;;;;;;1.30;1.20;;;0.70;99.90;;;;;;5069517;28;20988;-52
2022/01/06 03:58:10;;;;;;;1.70;1.20;;;0.70;1.40;;;;;;5071216;28;20480;-52
2022/01/06 04:00:37;;;;;;;8.27;1.60;;;0.60;99.90;;;;;;5066474;28;20452;-52
2022/01/06 04:03:04;;;;;;;1.90;1.20;;;0.60;99.90;;;;;;5067722;28;20504;-52
2022/01/06 04:05:33;;;;;;;2.10;1.20;;;0.50;99.90;;;;;;5070158;28;20512;-52
2022/01/06 04:07:59;;;;;;;0.97;0.73;;;0.50;99.90;;;;;;5070502;28;20457;-52
2022/01/06 04:10:26;;;;;;;2.90;1.03;;;0.50;99.90;;;;;;5068831;28;20888;-51
2022/01/06 04:12:53;;;;;;;2.00;1.20;;;0.50;99.90;;;;;;5069365;28;20520;-51
2022/01/06 04:15:22;;;;;;;2.27;0.90;;;0.50;99.90;;;;;;5064831;28;20515;-52
2022/01/06 04:17:48;;;;;;;4.60;1.13;;;0.40;99.90;;;;;;5062462;28;20855;-52
2022/01/06 04:20:16;;;;;;;2.90;1.27;;;0.30;99.90;;;;;;5070173;28;20492;-52
2022/01/06 04:22:43;;;;;;;1.20;1.10;;;0.30;99.90;;;;;;5067951;28;20517;-52
2022/01/06 04:25:11;;;;;;;4.23;1.00;;;0.30;99.90;;;;;;5061647;28;20520;-52
2022/01/06 04:27:38;;;;;;;1.67;1.00;;;0.30;99.90;;;;;;5067399;28;20488;-52
2022/01/06 04:30:06;;;;;;;3.83;1.00;;;0.20;99.90;;;;;;5063491;28;20497;-53
2022/01/06 04:32:33;;;;;;;3.97;1.00;;;0.30;99.90;;;;;;5069860;28;20485;-52
2022/01/06 04:34:59;;;;;;;1.43;1.00;;;0.30;99.90;;;;;;5069665;28;20485;-52
2022/01/06 04:37:28;;;;;;;1.77;1.63;;;0.30;99.90;;;;;;5064267;28;20511;-53
2022/01/06 04:39:55;;;;;;;1.20;0.80;;;0.30;99.90;;;;;;5060757;28;20457;-53
2022/01/06 04:42:22;;;;;;;1.27;0.90;;;0.20;99.90;;;;;;5068631;28;20485;-52
2022/01/06 04:44:48;;;;;;;2.70;0.70;;;0.20;99.90;;;;;;5073981;28;20513;-53
2022/01/06 04:47:15;;;;;;;1.33;1.10;;;0.20;99.90;;;;;;5063361;28;20497;-52
2022/01/06 04:49:41;;;;;;;3.47;1.23;;;0.20;99.90;;;;;;5069598;28;20492;-52
2022/01/06 04:52:08;;;;;;;1.40;1.00;;;0.10;99.90;;;;;;5072547;28;20516;-52
2022/01/06 04:54:36;;;;;;;0.70;0.70;;;0.10;99.90;;;;;;5065445;28;20484;-52
2022/01/06 04:57:03;;;;;;;3.90;1.33;;;0.00;99.90;;;;;;5069706;28;20493;-52
2022/01/06 04:59:29;;;;;;;4.60;1.60;;;0.00;99.90;;;;;;5066683;28;20859;-52
2022/01/06 05:01:56;;;;;;;1.00;1.00;;;-0.10;99.90;;;;;;5067295;28;20520;-52
2022/01/06 05:04:22;;;;;;;1.10;1.00;;;-0.10;99.90;;;;;;5065187;28;21017;-52
2022/01/06 05:06:50;;;;;;;3.60;1.60;;;-0.10;99.90;;;;;;5066733;28;20485;-52
2022/01/06 05:09:17;;;;;;;3.50;1.20;;;-0.20;99.90;;;;;;5074258;28;20452;-52
2022/01/06 05:11:45;;;;;;;2.63;1.27;;;-0.20;99.90;;;;;;5067483;28;20524;-52
2022/01/06 05:14:12;;;;;;;1.30;1.03;;;-0.20;99.90;;;;;;5068369;28;20888;-52
2022/01/06 05:16:38;;;;;;;1.73;1.30;;;-0.20;99.90;;;;;;5069534;28;20480;-52
2022/01/06 05:19:05;;;;;;;1.90;1.50;;;-0.20;99.90;;;;;;5062426;28;20970;-51
2022/01/06 05:21:33;;;;;;;1.50;1.40;;;-0.30;99.90;;;;;;5071481;28;20511;-51
2022/01/06 05:24:00;;;;;;;1.53;1.43;;;-0.30;99.90;;;;;;5071924;28;20457;-52
2022/01/06 05:26:26;;;;;;;4.77;2.33;;;-0.40;99.90;;;;;;5073807;28;20484;-53
2022/01/06 05:28:54;;;;;;;3.10;2.10;;;-0.40;99.90;;;;;;5067529;28;20550;-51
2022/01/06 05:31:21;;;;;;;1.87;1.73;;;-0.40;99.90;;;;;;5070452;28;20523;-53
2022/01/06 05:33:47;;;;;;;4.30;2.13;;;-0.50;99.90;;;;;;5063298;28;20469;-52
2022/01/06 05:36:14;;;;;;;2.63;1.47;;;-0.50;99.90;;;;;;5068002;28;20488;-53
2022/01/06 05:38:40;;;;;;;1.53;1.00;;;-0.60;99.90;;;;;;5066617;28;20488;-52
2022/01/06 05:41:07;;;;;;;2.07;1.30;;;-0.60;99.90;;;;;;5065977;28;21110;-52
2022/01/06 05:43:34;;;;;;;2.70;0.90;;;-0.50;99.90;;;;;;5066558;28;20499;-52
2022/01/06 05:46:01;;;;;;;2.00;1.40;;;-0.60;99.90;;;;;;5062224;28;20519;-52
2022/01/06 05:48:28;;;;;;;4.10;1.43;;;-0.60;99.90;;;;;;5068683;28;20546;-52
2022/01/06 05:50:55;;;;;;;2.23;1.17;;;-0.60;99.90;;;;;;5068749;28;20448;-52
2022/01/06 05:53:22;;;;;;;1.10;1.00;;;-0.60;99.90;;;;;;5069811;28;20457;-53
2022/01/06 05:55:48;;;;;;;1.20;1.10;;;-0.60;99.90;;;;;;5067638;28;20485;-52
2022/01/06 05:58:15;;;;;;;1.10;1.10;;;-0.60;99.90;;;;;;5058036;28;20553;-53
2022/01/06 06:00:42;;;;;;;1.90;1.33;;;-0.70;94.00;;;;;;5063191;28;20507;-53
2022/01/06 06:03:10;;;;;;;2.67;1.70;;;-0.60;92.40;;;;;;5062371;28;20568;-53
2022/01/06 06:05:37;;;;;;;3.47;1.20;;;-0.60;63.30;;;;;;5062449;28;21086;-52
2022/01/06 06:08:04;;;;;;;3.20;1.73;;;-0.70;72.30;;;;;;5065073;28;20461;-52
2022/01/06 06:10:30;;;;;;;1.57;1.20;;;-0.70;71.50;;;;;;5065206;28;20548;-52
2022/01/06 06:12:57;;;;;;;3.77;1.40;;;-0.70;63.40;;;;;;5063325;28;20582;-52
2022/01/06 06:15:23;;;;;;;3.30;2.33;;;-0.70;65.40;;;;;;5058984;28;20485;-53
2022/01/06 06:17:50;;;;;;;2.87;1.60;;;-0.60;55.50;;;;;;5066483;28;20587;-52
2022/01/06 06:20:18;;;;;;;4.27;2.17;;;-0.60;48.00;;;;;;5062274;28;22117;-52
2022/01/06 06:22:45;;;;;;;3.33;1.57;;;-0.60;39.60;;;;;;5062315;28;20505;-52
2022/01/06 06:25:11;;;;;;;1.90;1.40;;;-0.60;42.80;;;;;;5063827;28;21074;-52
2022/01/06 06:27:38;;;;;;;3.47;1.60;;;-0.60;43.70;;;;;;5061732;28;20540;-53
2022/01/06 06:30:06;;;;;;;4.80;2.20;;;-0.60;27.30;;;;;;5059295;28;20556;-52
2022/01/06 06:32:33;;;;;;;4.10;1.50;;;-0.60;36.60;;;;;;5068566;28;20508;-52
2022/01/06 06:35:00;;;;;;;4.03;1.90;;;-0.60;35.30;;;;;;5063598;28;20950;-52
2022/01/06 06:37:28;;;;;;;7.03;1.97;;;-0.60;22.20;;;;;;5068428;28;20886;-53
2022/01/06 06:39:56;;;;;;;2.97;1.37;;;-0.60;86.50;;;;;;5067154;28;20464;-52
2022/01/06 06:42:22;;;;;;;2.30;1.30;;;-0.50;99.90;;;;;;5068285;28;20480;-52
2022/01/06 06:44:49;;;;;;;8.90;1.43;;;-0.60;96.70;;;;;;5068533;28;20484;-54
2022/01/06 06:47:15;;;;;;;3.30;1.60;;;-0.50;99.90;;;;;;5067826;28;20535;-53
2022/01/06 06:49:42;;;;;;;5.57;2.10;;;-0.50;99.90;;;;;;5063348;28;21091;-52
2022/01/06 06:52:08;;;;;;;2.63;1.70;;;-0.50;99.90;;;;;;5064855;28;20517;-52
2022/01/06 06:54:36;;;;;;;13.83;1.87;;;-0.50;99.90;;;;;;5063980;28;20939;-52
2022/01/06 06:57:03;;;;;;;5.13;1.30;;;-0.50;99.90;;;;;;5061549;28;20488;-53
2022/01/06 06:59:30;;;;;;;5.37;2.57;;;-0.40;99.90;;;;;;5064506;28;20457;-52
2022/01/06 07:01:57;;;;;;;5.03;1.83;;;-0.40;99.90;;;;;;5061938;28;20512;-53
2022/01/06 07:04:23;;;;;;;4.30;2.03;;;-0.40;99.90;;;;;;5063691;28;20497;-53
2022/01/06 07:06:50;;;;;;;2.57;1.57;;;-0.40;99.90;;;;;;5065299;28;20972;-52
2022/01/06 07:09:17;;;;;;;1.90;1.50;;;-0.30;99.90;;;;;;5061146;28;20501;-52
2022/01/06 07:11:44;;;;;;;5.90;1.27;;;-0.30;99.90;;;;;;5030201;28;978397;-53
2022/01/06 07:14:11;;;;;;;5.40;1.03;;;-0.40;99.90;;;;;;5056684;28;20207;-52
2022/01/06 07:16:38;;;;;;;9.70;1.80;;;-0.30;99.90;;;;;;5064380;28;20530;-53
2022/01/06 07:19:04;;;;;;;6.93;1.50;;;-0.40;99.90;;;;;;5057565;28;20499;-52
2022/01/06 07:21:31;;;;;;;2.53;1.50;;;-0.30;99.90;;;;;;5066431;28;20915;-53
2022/01/06 07:23:57;;;;;;;6.00;1.67;;;-0.30;99.90;;;;;;5062091;28;20488;-52
2022/01/06 07:26:24;;;;;;;2.30;1.30;;;-0.30;99.90;;;;;;5065839;28;20516;-53
2022/01/06 07:28:52;;;;;;;3.10;1.80;;;-0.30;99.90;;;;;;5059789;28;20900;-52
2022/01/06 07:31:18;;;;;;;4.13;1.63;;;-0.40;99.90;;;;;;5061153;28;21097;-53
2022/01/06 07:33:45;;;;;;;4.10;1.27;;;-0.30;99.90;;;;;;5063531;28;20230;-52
2022/01/06 07:36:11;;;;;;;3.10;1.70;;;-0.30;99.90;;;;;;5071081;28;20487;-52
2022/01/06 07:38:38;;;;;;;5.53;1.73;;;-0.30;99.90;;;;;;5066510;28;20549;-52
2022/01/06 07:41:04;;;;;;;5.03;1.70;;;-0.30;99.90;;;;;;5055871;28;20501;-52
2022/01/06 07:43:31;;;;;;;2.60;1.30;;;-0.30;99.90;;;;;;5067980;28;20488;-52
2022/01/06 07:45:59;;;;;;;5.50;2.17;;;-0.30;99.90;;;;;;5064187;28;20482;-53
2022/01/06 07:48:36;;;;;;;2.80;1.77;;;-0.30;99.90;;;;;;5064913;28;21000;-52
2022/01/06 07:51:03;;;;;;;2.80;1.60;;;-0.30;99.90;;;;;;5067412;28;20507;-52
2022/01/06 07:53:30;;;;;;;3.13;1.43;;;-0.30;99.90;;;;;;5070843;28;20590;-52
2022/01/06 07:55:56;;;;;;;2.50;1.60;;;-0.30;99.90;;;;;;5069408;28;20488;-52
2022/01/06 07:58:24;;;;;;;6.13;2.10;;;-0.30;99.90;;;;;;5062704;28;20453;-52
2022/01/06 08:00:50;;;;;;;1.87;1.30;;;-0.30;99.90;;;;;;5062236;28;20868;-52
2022/01/06 08:03:18;;;;;;;4.50;2.43;;;-0.30;99.90;;;;;;5066318;28;20535;-52
2022/01/06 08:05:45;;;;;;;3.13;1.83;;;-0.30;99.90;;;;;;5068706;28;20555;-52
2022/01/06 08:08:11;;;;;;;2.50;1.53;;;-0.20;99.90;;;;;;5063997;28;20458;-51
2022/01/06 08:10:38;;;;;;;4.93;1.73;;;-0.10;99.90;;;;;;5066065;28;21185;-52
2022/01/06 08:13:04;;;;;;;2.00;1.10;;;-0.10;99.90;;;;;;5067061;28;22509;-52
2022/01/06 08:15:31;;;;;;;2.67;1.87;;;0.00;99.90;;;;;;5068854;28;20981;-52
2022/01/06 08:17:58;;;;;;;7.97;1.90;;;0.00;99.90;;;;;;5067013;28;20481;-52
2022/01/06 08:20:26;;;;;;;4.00;1.83;;;0.00;99.90;;;;;;5065591;28;20485;-52
2022/01/06 08:22:52;;;;;;;3.00;1.50;;;0.00;99.90;;;;;;5056099;28;20516;-57
2022/01/06 08:25:19;;;;;;;7.10;2.20;;;0.00;99.90;;;;;;5055850;28;20493;-52
2022/01/06 08:27:45;;;;;;;3.20;1.97;;;0.00;99.90;;;;;;5056130;28;20589;-53
2022/01/06 08:30:12;;;;;;;4.67;1.40;;;0.20;99.90;;;;;;5060270;28;20903;-52
2022/01/06 08:32:39;;;;;;;3.33;2.00;;;0.30;99.90;;;;;;5055735;28;21203;-52
2022/01/06 08:35:06;;;;;;;3.03;1.50;;;0.40;99.90;;;;;;5066550;28;20484;-52
2022/01/06 08:37:34;;;;;;;5.07;1.70;;;0.50;23.70;;;;;;5061523;28;20469;-51
2022/01/06 08:40:00;;;;;;;2.57;1.40;;;0.60;20.60;;;;;;5065658;28;20518;-52
2022/01/06 08:42:27;;;;;;;7.30;1.73;;;0.70;20.70;;;;;;5068851;28;20500;-52
2022/01/06 08:44:54;;;;;;;3.53;1.60;;;0.70;34.00;;;;;;5061034;28;20552;-52
2022/01/06 08:47:20;;;;;;;5.70;2.00;;;0.80;36.00;;;;;;5060595;28;20947;-53
2022/01/06 08:49:47;;;;;;;8.53;4.20;;;1.00;64.00;;;;;;5060458;28;20527;-52
2022/01/06 08:52:13;;;;;;;3.63;1.60;;;1.20;95.10;;;;;;5064791;28;20508;-51
2022/01/06 08:54:41;;;;;;;3.77;1.57;;;1.10;80.10;;;;;;5060356;28;20492;-52
2022/01/06 08:57:08;;;;;;;5.40;2.40;;;1.50;81.60;;;;;;5064033;28;20920;-52
2022/01/06 08:59:35;;;;;;;3.13;1.53;;;1.70;99.90;;;;;;5065132;28;20452;-52
2022/01/06 09:02:01;;;;;;;3.17;1.97;;;1.40;83.60;;;;;;5066556;28;20527;-51
2022/01/06 09:04:28;;;;;;;7.17;2.10;;;1.30;86.00;;;;;;5062643;28;20464;-51
2022/01/06 09:06:55;;;;;;;5.00;2.20;;;1.10;68.40;;;;;;5068043;28;20523;-52
2022/01/06 09:09:22;;;;;;;3.40;1.80;;;1.20;75.50;;;;;;5069717;28;20942;-52
2022/01/06 09:11:50;;;;;;;3.50;1.90;;;1.10;85.70;;;;;;5067869;28;20541;-52
2022/01/06 09:14:16;;;;;;;4.27;1.80;;;1.50;98.20;;;;;;5065779;28;20519;-52
2022/01/06 09:16:44;;;;;;;5.50;1.90;;;1.80;99.90;;;;;;5060639;28;20534;-51
2022/01/06 09:19:11;;;;;;;5.07;1.63;;;2.10;99.90;;;;;;5062202;28;20503;-52
2022/01/06 09:21:38;;;;;;;5.30;2.27;;;2.10;99.90;;;;;;5065982;28;20996;-52
2022/01/06 09:24:06;;;;;;;7.40;1.93;;;2.00;99.90;;;;;;5066558;28;20499;-52
2022/01/06 09:26:35;;;;;;;8.13;2.70;;;2.00;99.90;;;;;;5067616;28;22328;-54
2022/01/06 09:29:04;;;;;;;2.40;1.73;;;1.80;99.90;;;;;;5073239;28;20499;-52
2022/01/06 09:31:31;;;;;;;4.33;1.90;;;2.10;99.90;;;;;;5065085;28;20482;-51
2022/01/06 09:33:59;;;;;;;5.23;1.97;;;2.10;99.90;;;;;;5072899;28;20445;-52
2022/01/06 09:36:27;;;;;;;5.53;1.87;;;1.90;99.90;;;;;;5064867;28;21045;-52
2022/01/06 09:38:54;;;;;;;4.53;2.07;;;2.40;99.90;;;;;;5060457;28;20480;-51
2022/01/06 09:41:22;;;;;;;4.30;2.40;;;2.30;99.90;;;;;;5069002;28;20472;-52
2022/01/06 09:43:51;;;;;;;1.90;1.80;;;2.70;99.90;;;;;;5071704;28;20530;-51
2022/01/06 09:46:20;;;;;;;6.93;2.20;;;2.30;99.90;;;;;;5070138;28;20508;-52
2022/01/06 09:48:49;;;;;;;6.10;2.73;;;2.30;99.90;;;;;;5075275;28;20510;-52
2022/01/06 09:51:16;;;;;;;7.50;1.67;;;2.50;99.90;;;;;;5062489;28;20493;-52
2022/01/06 09:53:43;;;;;;;3.70;1.80;;;2.70;99.90;;;;;;5071015;28;20533;-52
2022/01/06 09:56:10;;;;;;;4.77;1.57;;;3.10;99.90;;;;;;5072596;28;20512;-52
2022/01/06 09:58:37;;;;;;;2.23;1.57;;;3.40;99.90;;;;;;5071245;28;20541;-52
2022/01/06 10:01:03;;;;;;;3.30;1.83;;;4.00;45.60;;;;;;5072058;28;20465;-53
2022/01/06 10:03:36;;;;;;;1.63;1.53;;;5.20;99.90;;;;;;5071813;28;20503;-51
2022/01/06 10:06:11;;;;;;;4.10;1.77;;;5.50;99.90;;;;;;5071059;28;20877;-52
2022/01/06 10:08:38;;;;;;;2.17;1.33;;;6.70;99.90;;;;;;5061708;28;21425;-51
2022/01/06 10:11:12;;;;;;;4.90;1.50;;;7.50;99.90;;;;;;5067059;28;20469;-53
2022/01/06 10:13:40;;;;;;;4.00;1.57;;;6.80;99.90;;;;;;5074243;28;20472;-47
2022/01/06 10:16:16;;;;;;;3.00;1.60;;;6.00;99.90;;;;;;5064550;28;20456;-47
2022/01/06 10:18:59;;;;;;;1.80;1.70;;;6.60;99.90;;;;;;5066745;28;20452;-47
2022/01/06 10:21:31;;;;;;;2.80;1.97;;;4.90;99.90;;;;;;5055098;28;20571;-46
2022/01/06 10:24:03;;;;;;;2.23;1.30;;;5.30;99.90;;;;;;5058496;28;20500;-46
2022/01/06 10:26:30;;;;;;;2.20;1.60;;;5.10;78.10;;;;;;5067478;28;20570;-48
2022/01/06 10:28:56;;;;;;;6.07;2.33;;;5.60;99.90;;;;;;5069618;28;20488;-47
2022/01/06 10:31:24;;;;;;;5.83;1.87;;;5.00;99.90;;;;;;5068974;28;20918;-47
2022/01/06 10:33:51;;;;;;;12.00;1.47;;;5.10;99.90;;;;;;5068701;28;20883;-47
2022/01/06 10:36:19;;;;;;;3.80;1.73;;;4.20;55.80;;;;;;5072598;28;20903;-47
2022/01/06 10:38:53;;;;;;;1.97;1.50;;;3.80;30.00;;;;;;5068813;28;20469;-47
2022/01/06 10:41:20;;;;;;;3.03;1.80;;;3.40;99.90;;;;;;5068311;28;20516;-47
2022/01/06 10:43:50;;;;;;;5.57;1.97;;;3.50;99.90;;;;;;5066657;28;20902;-47
2022/01/06 10:46:28;;;;;;;5.00;1.90;;;3.40;99.90;;;;;;5068475;28;20468;-47
2022/01/06 10:48:57;;;;;;;8.00;2.10;;;3.30;99.90;;;;;;5064191;28;20517;-47
2022/01/06 10:51:41;;;;;;;3.80;1.60;;;3.20;99.90;;;;;;5065815;28;20480;-47
2022/01/06 10:54:12;;;;;;;3.80;1.70;;;3.70;82.90;;;;;;5065112;28;20518;-47
2022/01/06 10:56:40;;;;;;;4.73;2.10;;;3.80;89.10;;;;;;5067331;28;20485;-47
2022/01/06 10:59:06;;;;;;;2.50;2.10;;;3.90;33.30;;;;;;5063074;28;20985;-48
2022/01/06 11:01:34;;;;;;;7.50;2.20;;;4.70;69.50;;;;;;5068675;28;20504;-47
2022/01/06 11:04:01;;;;;;;4.63;1.60;;;5.20;87.90;;;;;;5067389;28;20488;-46
2022/01/06 11:06:28;;;;;;;3.47;1.77;;;4.50;74.10;;;;;;5061437;28;20538;-46
2022/01/06 11:08:56;;;;;;;4.03;2.00;;;4.50;57.50;;;;;;5053312;28;20489;-46
2022/01/06 11:14:08;;;;;;;5.40;1.80;;;3.90;72.10;;;;;;5027694;28;20461;-47
2022/01/06 11:16:35;;;;;;;2.13;1.40;;;3.80;21.30;;;;;;5069652;28;20453;-46
2022/01/06 11:19:01;;;;;;;2.60;1.57;;;3.80;99.90;;;;;;5060088;28;20485;-47
2022/01/06 11:21:35;;;;;;;5.33;1.47;;;4.20;25.40;;;;;;5065790;28;21021;-46
2022/01/06 11:24:09;;;;;;;2.23;1.57;;;3.70;99.90;;;;;;5063212;28;20488;-47
2022/01/06 11:26:36;;;;;;;4.20;1.80;;;4.20;48.70;;;;;;5061271;28;20534;-47
2022/01/06 11:29:03;;;;;;;4.00;1.50;;;4.50;56.10;;;;;;5068792;28;20472;-46
2022/01/06 11:31:37;;;;;;;4.53;2.00;;;4.10;46.30;;;;;;5062626;28;20515;-47
2022/01/06 11:34:13;;;;;;;2.43;1.77;;;3.80;30.30;;;;;;5060340;28;20484;-47
2022/01/06 11:36:39;;;;;;;5.50;2.20;;;3.80;29.20;;;;;;5069067;28;20464;-47
2022/01/06 11:39:09;;;;;;;1.80;1.40;;;3.70;22.30;;;;;;5070545;28;20477;-47
2022/01/06 11:41:39;;;;;;;3.00;2.00;;;4.20;33.90;;;;;;5067870;28;21033;-47
2022/01/06 11:44:16;;;;;;;4.93;1.80;;;4.30;96.10;;;;;;5070544;28;20480;-46
2022/01/06 11:46:43;;;;;;;3.03;1.87;;;4.60;78.90;;;;;;5066504;28;20519;-47
2022/01/06 11:49:10;;;;;;;3.47;2.20;;;4.20;56.40;;;;;;5069187;28;20465;-47
2022/01/06 11:51:37;;;;;;;3.87;1.90;;;4.10;47.50;;;;;;5068768;28;20508;-47
2022/01/06 11:54:15;;;;;;;3.00;1.97;;;3.90;41.80;;;;;;5071567;28;20962;-47
2022/01/06 11:56:46;;;;;;;3.93;1.50;;;3.90;43.70;;;;;;5052023;28;20944;-47
2022/01/06 11:59:12;;;;;;;5.40;1.60;;;3.70;47.70;;;;;;5070145;28;20449;-47
2022/01/06 12:01:47;;;;;;;4.33;1.80;;;3.80;43.80;;;;;;5070188;28;20473;-47
2022/01/06 12:04:18;;;;;;;4.13;2.00;;;3.90;54.00;;;;;;5067071;28;20521;-47
2022/01/06 12:06:45;;;;;;;1.87;1.27;;;3.90;32.70;;;;;;5069928;28;21004;-47
2022/01/06 12:09:17;;;;;;;4.67;1.40;;;3.80;62.80;;;;;;5070868;28;20458;-47
2022/01/06 12:11:44;;;;;;;6.33;1.70;;;3.90;78.30;;;;;;5067766;28;20496;-46
2022/01/06 12:14:11;;;;;;;3.80;1.90;;;4.10;94.70;;;;;;5058053;28;20498;-48
2022/01/06 12:16:41;;;;;;;3.00;1.90;;;4.30;90.10;;;;;;5070772;28;20536;-48
2022/01/06 12:19:14;;;;;;;8.30;2.97;;;5.90;99.90;;;;;;5069800;28;20461;-47
2022/01/06 12:21:41;;;;;;;11.60;2.67;;;5.90;99.90;;;;;;5062402;28;20496;-48
2022/01/06 12:24:10;;;;;;;7.27;2.47;;;7.40;99.90;;;;;;5071729;28;20480;-47
2022/01/06 12:26:39;;;;;;;1.93;1.30;;;7.50;99.90;;;;;;5069432;28;20492;-47
2022/01/06 12:29:13;;;;;;;4.80;1.73;;;7.00;99.90;;;;;;5057470;28;20494;-48
2022/01/06 12:31:41;;;;;;;5.80;2.07;;;7.10;99.90;;;;;;5068405;28;20868;-48
2022/01/06 12:34:10;;;;;;;7.53;1.97;;;7.00;99.90;;;;;;5070372;28;20956;-47
2022/01/06 12:36:40;;;;;;;6.10;1.63;;;6.50;99.90;;;;;;5070175;28;20463;-47
2022/01/06 12:39:08;;;;;;;2.93;1.43;;;5.60;99.90;;;;;;5071497;28;20472;-47
2022/01/06 12:41:35;;;;;;;5.73;1.63;;;5.90;99.90;;;;;;5066693;28;20898;-47
2022/01/06 12:44:03;;;;;;;7.73;2.03;;;6.30;99.90;;;;;;5070274;28;20449;-47
2022/01/06 12:46:32;;;;;;;3.57;2.10;;;6.60;99.90;;;;;;5062635;28;20539;-47
2022/01/06 12:48:59;;;;;;;5.13;2.03;;;5.90;99.90;;;;;;5069547;28;20578;-48
2022/01/06 12:51:27;;;;;;;3.97;2.20;;;6.00;99.90;;;;;;5060143;28;20546;-47
2022/01/06 12:54:00;;;;;;;5.77;2.17;;;5.70;99.90;;;;;;5058898;28;20962;-47
2022/01/06 12:56:30;;;;;;;4.30;1.60;;;5.50;99.90;;;;;;5071034;28;20476;-47
2022/01/06 12:58:56;;;;;;;6.17;2.10;;;5.80;99.90;;;;;;5064109;28;20480;-47
2022/01/06 13:01:25;;;;;;;3.90;2.03;;;5.00;99.90;;;;;;5068198;28;20519;-48
2022/01/06 13:03:54;;;;;;;5.90;2.63;;;4.60;99.90;;;;;;5072797;28;20958;-47